createdAt,value
2022-08-09T00:02:37.328Z,18.64
2022-08-09T00:06:19.161Z,18.60
2022-08-09T00:08:09.669Z,18.61
2022-08-09T00:12:03.220Z,18.63
2022-08-09T00:15:06.660Z,18.66
2022-08-09T00:18:15.254Z,18.70
2022-08-09T00:21:55.836Z,18.75
2022-08-09T00:24:51.642Z,18.79
2022-08-09T00:28:19.043Z,18.77
2022-08-09T00:32:06.861Z,18.80
2022-08-09T00:35:43.051Z,18.84
2022-08-09T00:40:13.494Z,18.83
2022-08-09T00:44:15.598Z,18.78
2022-08-09T00:45:16.054Z,18.80
2022-08-09T00:47:43.640Z,18.82
2022-08-09T00:50:14.561Z,18.83
2022-08-09T00:52:42.214Z,18.85
2022-08-09T00:55:10.282Z,18.85
2022-08-09T00:57:59.332Z,18.86
2022-08-09T01:00:27.581Z,18.89
2022-08-09T01:03:40.897Z,18.92
2022-08-09T01:06:54.334Z,18.95
2022-08-09T01:09:36.577Z,18.98
2022-08-09T01:12:17.366Z,19.02
2022-08-09T01:15:10.066Z,19.04
2022-08-09T01:17:56.717Z,19.06
2022-08-09T01:20:55.195Z,19.08
2022-08-09T01:24:01.780Z,19.08
2022-08-09T01:27:00.009Z,19.06
2022-08-09T01:29:56.829Z,19.04
2022-08-09T01:32:33.739Z,19.01
2022-08-09T01:35:28.497Z,18.96
2022-08-09T01:38:08.008Z,18.91
2022-08-09T01:40:44.288Z,18.87
2022-08-09T01:43:13.631Z,18.83
2022-08-09T01:45:46.437Z,18.78
2022-08-09T01:49:15.159Z,18.73
2022-08-09T01:52:43.269Z,18.68
2022-08-09T01:55:12.231Z,18.63
2022-08-09T01:57:52.977Z,18.59
2022-08-09T02:06:03.561Z,18.52
2022-08-09T02:09:59.535Z,18.45
2022-08-09T02:13:55.346Z,18.42
2022-08-09T02:18:00.042Z,18.47
2022-08-09T02:21:30.970Z,18.53
2022-08-09T02:25:21.372Z,18.57
2022-08-09T02:29:17.018Z,18.63
2022-08-09T02:33:07.853Z,18.70
2022-08-09T02:36:57.666Z,18.79
2022-08-09T02:40:26.979Z,18.93
2022-08-09T02:44:25.563Z,19.01
2022-08-09T02:47:57.362Z,18.97
2022-08-09T02:51:18.206Z,18.94
2022-08-09T02:54:54.282Z,18.97
2022-08-09T02:58:44.096Z,19.06
2022-08-09T03:02:32.806Z,19.14
2022-08-09T03:06:04.198Z,19.12
2022-08-09T03:09:54.390Z,19.13
2022-08-09T03:13:59.457Z,18.98
2022-08-09T03:16:58.282Z,18.87
2022-08-09T03:19:52.216Z,18.82
2022-08-09T03:23:15.213Z,18.75
2022-08-09T03:26:19.551Z,18.68
2022-08-09T03:29:09.604Z,18.66
2022-08-09T03:31:42.718Z,18.66
2022-08-09T03:34:28.093Z,18.64
2022-08-09T03:36:59.412Z,18.61
2022-08-09T03:40:18.135Z,18.58
2022-08-09T03:43:34.054Z,18.55
2022-08-09T03:46:20.272Z,18.53
2022-08-09T03:48:57.719Z,18.52
2022-08-09T03:52:04.332Z,18.53
2022-08-09T03:55:16.166Z,18.57
2022-08-09T03:58:03.430Z,18.60
2022-08-09T04:00:34.243Z,18.62
2022-08-09T04:03:46.135Z,18.67
2022-08-09T04:06:52.057Z,18.74
2022-08-09T04:09:48.111Z,18.85
2022-08-09T04:12:35.406Z,18.96
2022-08-09T04:15:40.389Z,19.06
2022-08-09T04:19:43.090Z,19.10
2022-08-09T04:23:27.569Z,19.16
2022-08-09T04:27:11.448Z,19.20
2022-08-09T04:30:58.122Z,19.28
2022-08-09T04:34:54.108Z,19.35
2022-08-09T04:38:41.955Z,19.39
2022-08-09T04:42:09.761Z,19.35
2022-08-09T04:45:52.989Z,19.33
2022-08-09T04:49:52.591Z,19.30
2022-08-09T04:53:42.233Z,19.33
2022-08-09T04:57:54.424Z,19.39
2022-08-09T05:01:19.399Z,19.44
2022-08-09T05:05:10.029Z,19.47
2022-08-09T05:08:38.186Z,19.49
2022-08-09T05:11:32.198Z,19.49
2022-08-09T05:15:11.443Z,19.50
2022-08-09T05:18:37.771Z,19.56
2022-08-09T05:22:36.142Z,19.62
2022-08-09T05:25:11.439Z,19.70
2022-08-09T05:28:15.339Z,19.77
2022-08-09T05:32:01.780Z,19.87
2022-08-09T05:35:13.449Z,19.96
2022-08-09T05:38:25.224Z,20.07
2022-08-09T05:40:55.026Z,20.14
2022-08-09T05:43:21.790Z,20.22
2022-08-09T05:45:55.972Z,20.30
2022-08-09T05:48:32.783Z,20.29
2022-08-09T05:51:45.940Z,20.25
2022-08-09T05:55:21.005Z,20.30
2022-08-09T05:59:08.359Z,20.37
2022-08-09T06:02:00.007Z,20.50
2022-08-09T06:04:35.060Z,20.58
2022-08-09T06:07:11.382Z,20.62
2022-08-09T06:10:01.701Z,20.61
2022-08-09T06:13:03.081Z,20.63
2022-08-09T06:15:39.769Z,20.65
2022-08-09T06:18:15.856Z,20.62
2022-08-09T06:20:54.166Z,20.55
2022-08-09T06:23:58.890Z,20.53
2022-08-09T06:26:13.182Z,20.61
2022-08-09T06:28:43.219Z,20.58
2022-08-09T06:31:31.411Z,20.60
2022-08-09T06:34:30.639Z,20.67
2022-08-09T06:37:00.703Z,20.74
2022-08-09T06:39:49.300Z,20.79
2022-08-09T06:42:20.168Z,20.84
2022-08-09T06:46:06.431Z,20.88
2022-08-09T06:49:22.945Z,20.94
2022-08-09T06:52:48.865Z,20.99
2022-08-09T06:56:35.959Z,21.03
2022-08-09T07:00:51.426Z,21.08
2022-08-09T07:04:10.452Z,21.18
2022-08-09T07:08:00.603Z,21.27
2022-08-09T07:10:18.065Z,21.37
2022-08-09T07:14:04.880Z,21.49
2022-08-09T07:16:41.371Z,21.57
2022-08-09T07:19:15.734Z,21.67
2022-08-09T07:21:57.071Z,21.74
2022-08-09T07:24:32.642Z,21.84
2022-08-09T07:27:27.303Z,21.99
2022-08-09T07:30:03.501Z,22.12
2022-08-09T07:32:34.724Z,22.24
2022-08-09T07:35:08.146Z,22.32
2022-08-09T07:37:45.860Z,22.40
2022-08-09T07:40:20.629Z,22.47
2022-08-09T07:42:57.397Z,22.55
2022-08-09T07:45:40.001Z,22.63
2022-08-09T07:48:25.934Z,22.72
2022-08-09T07:52:05.814Z,22.75
2022-08-09T07:54:07.712Z,22.77
2022-08-09T07:56:44.862Z,22.83
2022-08-09T07:59:25.081Z,22.90
2022-08-09T08:02:16.661Z,22.98
2022-08-09T08:04:48.528Z,23.02
2022-08-09T08:08:43.396Z,23.03
2022-08-09T08:10:11.378Z,23.01
2022-08-09T08:12:59.837Z,23.00
2022-08-09T08:15:47.625Z,23.03
2022-08-09T08:18:17.215Z,23.05
2022-08-09T08:20:57.315Z,23.07
2022-08-09T08:23:28.271Z,23.14
2022-08-09T08:26:08.236Z,23.21
2022-08-09T08:28:38.616Z,23.25
2022-08-09T08:31:14.311Z,23.26
2022-08-09T08:33:52.501Z,23.25
2022-08-09T08:36:29.175Z,23.26
2022-08-09T08:39:00.065Z,23.27
2022-08-09T08:41:50.486Z,23.30
2022-08-09T08:44:26.917Z,23.34
2022-08-09T08:47:02.314Z,23.38
2022-08-09T08:49:38.877Z,23.42
2022-08-09T08:52:59.681Z,23.45
2022-08-09T08:55:06.954Z,23.49
2022-08-09T08:57:37.676Z,23.52
2022-08-09T09:00:20.893Z,23.55
2022-08-09T09:03:08.272Z,23.57
2022-08-09T09:06:00.709Z,23.60
2022-08-09T09:08:37.743Z,23.63
2022-08-09T09:11:08.991Z,23.66
2022-08-09T09:13:56.724Z,23.68
2022-08-09T09:16:31.095Z,23.70
2022-08-09T09:19:37.112Z,23.75
2022-08-09T09:22:07.715Z,23.80
2022-08-09T09:24:39.744Z,23.85
2022-08-09T09:27:09.193Z,23.90
2022-08-09T09:32:37.071Z,24.03
2022-08-09T09:35:09.913Z,24.07
2022-08-09T09:37:40.334Z,24.08
2022-08-09T09:40:09.505Z,24.12
2022-08-09T09:42:36.225Z,24.20
2022-08-09T09:45:06.723Z,24.27
2022-08-09T09:47:42.183Z,24.31
2022-08-09T09:50:42.076Z,24.37
2022-08-09T09:53:20.382Z,24.47
2022-08-09T09:56:04.324Z,24.53
2022-08-09T09:58:47.212Z,24.58
2022-08-09T10:01:30.206Z,24.65
2022-08-09T10:04:12.029Z,24.71
2022-08-09T10:06:42.620Z,24.70
2022-08-09T10:09:22.905Z,24.72
2022-08-09T10:12:11.859Z,24.76
2022-08-09T10:14:47.732Z,24.81
2022-08-09T10:17:40.687Z,24.89
2022-08-09T10:20:32.383Z,24.99
2022-08-09T10:23:21.204Z,25.05
2022-08-09T10:26:07.524Z,25.17
2022-08-09T10:28:40.290Z,25.37
2022-08-09T10:34:18.716Z,25.68
2022-08-09T10:36:42.992Z,25.76
2022-08-09T10:39:15.582Z,25.77
2022-08-09T10:41:42.931Z,25.76
2022-08-09T10:44:10.122Z,25.76
2022-08-09T10:48:13.434Z,25.74
2022-08-09T10:50:03.169Z,25.69
2022-08-09T10:52:48.618Z,25.65
2022-08-09T10:55:25.517Z,25.61
2022-08-09T10:57:55.666Z,25.57
2022-08-09T11:00:50.996Z,25.52
2022-08-09T11:03:47.088Z,25.43
2022-08-09T11:06:23.569Z,25.35
2022-08-09T11:08:53.017Z,25.32
2022-08-09T11:11:22.632Z,25.30
2022-08-09T11:14:28.257Z,25.31
2022-08-09T11:16:59.539Z,25.32
2022-08-09T11:20:07.999Z,25.33
2022-08-09T11:22:39.828Z,25.34
2022-08-09T11:25:15.169Z,25.34
2022-08-09T11:28:04.000Z,25.33
2022-08-09T11:30:36.523Z,25.30
2022-08-09T11:33:16.979Z,25.27
2022-08-09T11:35:53.639Z,25.24
2022-08-09T11:38:32.732Z,25.22
2022-08-09T11:41:13.790Z,25.21
2022-08-09T11:43:52.109Z,25.22
2022-08-09T11:46:33.370Z,25.22
2022-08-09T11:49:05.190Z,25.23
2022-08-09T11:53:01.093Z,25.26
2022-08-09T11:55:39.854Z,25.26
2022-08-09T11:58:18.215Z,25.28
2022-08-09T12:00:59.644Z,25.30
2022-08-09T12:03:55.290Z,25.30
2022-08-09T12:06:26.429Z,25.20
2022-08-09T12:08:55.851Z,25.09
2022-08-09T12:11:25.332Z,25.01
2022-08-09T12:14:08.168Z,24.99
2022-08-09T12:16:41.046Z,24.96
2022-08-09T12:19:12.548Z,24.96
2022-08-09T12:21:48.554Z,24.99
2022-08-09T12:24:24.065Z,25.05
2022-08-09T12:29:11.408Z,25.11
2022-08-09T12:30:00.039Z,25.18
2022-08-09T12:32:41.035Z,25.23
2022-08-09T12:35:12.501Z,25.24
2022-08-09T12:37:50.479Z,25.27
2022-08-09T12:40:24.564Z,25.31
2022-08-09T12:42:53.496Z,25.35
2022-08-09T12:45:34.323Z,25.40
2022-08-09T12:48:20.227Z,25.43
2022-08-09T12:50:59.602Z,25.45
2022-08-09T12:53:40.807Z,25.47
2022-08-09T12:56:43.815Z,25.48
2022-08-09T12:59:21.529Z,25.49
2022-08-09T13:02:04.629Z,25.49
2022-08-09T13:04:38.181Z,25.47
2022-08-09T13:07:15.731Z,25.44
2022-08-09T13:09:55.380Z,25.45
2022-08-09T13:12:28.707Z,25.47
2022-08-09T13:15:15.169Z,25.49
2022-08-09T13:18:04.778Z,25.52
2022-08-09T13:20:37.598Z,25.56
2022-08-09T13:24:54.283Z,25.62
2022-08-09T13:27:40.090Z,25.70
2022-08-09T13:30:51.076Z,25.76
2022-08-09T13:33:11.717Z,25.81
2022-08-09T13:36:39.026Z,25.82
2022-08-09T13:38:57.358Z,25.81
2022-08-09T13:41:52.503Z,25.78
2022-08-09T13:44:16.868Z,25.77
2022-08-09T13:47:27.405Z,25.79
2022-08-09T13:49:37.725Z,25.85
2022-08-09T13:52:07.958Z,25.88
2022-08-09T13:54:41.729Z,25.92
2022-08-09T13:57:14.493Z,25.97
2022-08-09T13:59:58.272Z,26.03
2022-08-09T14:02:27.600Z,26.09
2022-08-09T14:04:59.966Z,26.10
2022-08-09T14:07:41.243Z,26.09
2022-08-09T14:10:45.902Z,26.06
2022-08-09T14:14:16.511Z,26.04
2022-08-09T14:16:28.436Z,26.05
2022-08-09T14:19:20.456Z,26.07
2022-08-09T14:21:58.904Z,26.07
2022-08-09T14:24:32.326Z,26.05
2022-08-09T14:27:00.650Z,26.02
2022-08-09T14:30:34.828Z,25.99
2022-08-09T14:32:16.457Z,25.99
2022-08-09T14:34:47.119Z,25.97
2022-08-09T14:37:28.544Z,26.00
2022-08-09T14:40:11.846Z,26.07
2022-08-09T14:42:42.869Z,26.00
2022-08-09T14:46:46.626Z,25.73
2022-08-09T14:48:59.576Z,25.44
2022-08-09T14:52:50.097Z,25.27
2022-08-09T14:56:57.369Z,24.90
2022-08-09T15:00:48.532Z,24.55
2022-08-09T15:04:38.795Z,24.36
2022-08-09T15:08:03.995Z,24.21
2022-08-09T15:11:32.344Z,24.15
2022-08-09T15:14:59.398Z,24.12
2022-08-09T15:18:48.334Z,24.08
2022-08-09T15:22:37.839Z,24.03
2022-08-09T15:26:19.010Z,23.74
2022-08-09T15:30:55.521Z,23.37
2022-08-09T15:34:15.485Z,22.90
2022-08-09T15:38:11.806Z,22.58
2022-08-09T15:41:59.196Z,22.41
2022-08-09T15:45:52.003Z,22.36
2022-08-09T15:49:21.815Z,22.28
2022-08-09T15:52:54.977Z,22.16
2022-08-09T15:56:53.821Z,22.04
2022-08-09T16:00:01.468Z,21.96
2022-08-09T16:03:29.279Z,21.93
2022-08-09T16:07:25.866Z,21.93
2022-08-09T16:11:12.818Z,21.95
2022-08-09T16:14:40.235Z,21.98
2022-08-09T16:18:26.940Z,21.93
2022-08-09T16:21:48.718Z,21.81
2022-08-09T16:25:07.895Z,21.77
2022-08-09T16:27:36.742Z,21.73
2022-08-09T16:30:06.452Z,21.70
2022-08-09T16:32:54.640Z,21.68
2022-08-09T16:35:56.902Z,21.65
2022-08-09T16:38:09.482Z,21.54
2022-08-09T16:40:40.795Z,21.41
2022-08-09T16:43:08.457Z,21.24
2022-08-09T16:45:41.652Z,21.12
2022-08-09T16:48:39.961Z,21.04
2022-08-09T16:50:59.567Z,20.99
2022-08-09T16:53:34.878Z,20.89
2022-08-09T16:56:09.722Z,20.78
2022-08-09T16:58:49.702Z,20.71
2022-08-09T17:01:19.429Z,20.68
2022-08-09T17:03:52.175Z,20.61
2022-08-09T17:06:32.111Z,20.61
2022-08-09T17:09:09.469Z,20.56
2022-08-09T17:11:51.288Z,20.32
2022-08-09T17:14:27.017Z,19.99
2022-08-09T17:17:01.972Z,19.47
2022-08-09T17:19:46.605Z,18.98
2022-08-09T17:22:24.091Z,18.73
2022-08-09T17:25:03.694Z,18.51
2022-08-09T17:27:38.211Z,18.37
2022-08-09T17:30:12.763Z,18.35
2022-08-09T17:32:40.185Z,18.39
2022-08-09T17:35:12.848Z,18.50
2022-08-09T17:38:12.671Z,18.61
2022-08-09T17:40:35.189Z,18.74
2022-08-09T17:43:32.763Z,18.83
2022-08-09T17:46:02.837Z,18.93
2022-08-09T17:48:38.912Z,19.04
2022-08-09T17:51:17.113Z,19.09
2022-08-09T17:53:51.572Z,19.11
2022-08-09T17:56:26.818Z,19.13
2022-08-09T17:58:57.401Z,19.14
2022-08-09T18:01:24.246Z,19.16
2022-08-09T18:03:54.550Z,19.20
2022-08-09T18:06:32.483Z,19.21
2022-08-09T18:09:06.488Z,19.28
2022-08-09T18:11:46.800Z,19.37
2022-08-09T18:14:23.108Z,19.38
2022-08-09T18:16:50.492Z,19.41
2022-08-09T18:20:55.739Z,19.45
2022-08-09T18:22:05.625Z,19.47
2022-08-09T18:24:39.653Z,19.49
2022-08-09T18:27:09.093Z,19.53
2022-08-09T18:30:40.978Z,19.61
2022-08-09T18:32:22.385Z,19.65
2022-08-09T18:34:49.291Z,19.70
2022-08-09T18:37:48.798Z,19.76
2022-08-09T18:40:03.393Z,19.80
2022-08-09T18:42:30.326Z,19.81
2022-08-09T18:45:00.642Z,19.80
2022-08-09T18:47:37.106Z,19.77
2022-08-09T18:50:06.133Z,19.75
2022-08-09T18:52:35.936Z,19.75
2022-08-09T18:55:04.995Z,19.71
2022-08-09T18:57:38.436Z,19.67
2022-08-09T19:00:16.625Z,19.64
2022-08-09T19:02:53.929Z,19.65
2022-08-09T19:05:49.056Z,19.68
2022-08-09T19:08:11.961Z,19.69
2022-08-09T19:10:45.321Z,19.72
2022-08-09T19:13:22.404Z,19.75
2022-08-09T19:16:00.562Z,19.78
2022-08-09T19:18:34.188Z,19.82
2022-08-09T19:21:05.441Z,19.83
2022-08-09T19:24:37.482Z,19.82
2022-08-09T19:26:31.957Z,19.77
2022-08-09T19:29:02.485Z,19.72
2022-08-09T19:31:43.933Z,19.71
2022-08-09T19:34:21.538Z,19.76
2022-08-09T19:36:54.892Z,19.78
2022-08-09T19:39:43.012Z,19.76
2022-08-09T19:42:15.282Z,19.70
2022-08-09T19:44:49.345Z,19.64
2022-08-09T19:47:23.037Z,19.60
2022-08-09T19:50:06.930Z,19.57
2022-08-09T19:52:36.202Z,19.47
2022-08-09T19:55:04.168Z,19.36
2022-08-09T19:57:30.984Z,19.26
2022-08-09T20:00:06.736Z,19.22
2022-08-09T20:04:26.108Z,19.07
2022-08-09T20:05:27.935Z,18.85
2022-08-09T20:07:59.136Z,18.70
2022-08-09T20:10:34.384Z,18.57
2022-08-09T20:13:02.587Z,18.42
2022-08-09T20:16:35.369Z,18.35
2022-08-09T20:18:19.891Z,18.34
2022-08-09T20:20:46.953Z,18.35
2022-08-09T20:23:13.546Z,18.35
2022-08-09T20:25:51.889Z,18.36
2022-08-09T20:28:27.425Z,18.41
2022-08-09T20:31:05.449Z,18.45
2022-08-09T20:33:38.895Z,18.48
2022-08-09T20:36:08.697Z,18.49
2022-08-09T20:39:06.951Z,18.50
2022-08-09T20:41:34.699Z,18.55
2022-08-09T20:44:03.303Z,18.58
2022-08-09T20:46:42.366Z,18.61
2022-08-09T20:49:12.516Z,18.64
2022-08-09T20:51:40.960Z,18.69
2022-08-09T20:54:12.435Z,18.77
2022-08-09T20:56:39.612Z,18.84
2022-08-09T20:59:07.895Z,18.91
2022-08-09T21:01:51.455Z,18.97
2022-08-09T21:05:53.562Z,19.00
2022-08-09T21:07:12.108Z,18.97
2022-08-09T21:09:57.013Z,18.95
2022-08-09T21:15:14.467Z,18.95
2022-08-09T21:18:11.431Z,18.96
2022-08-09T21:20:30.006Z,18.99
2022-08-09T21:22:59.309Z,19.04
2022-08-09T21:25:56.130Z,19.09
2022-08-09T21:28:34.226Z,19.17
2022-08-09T21:31:19.479Z,19.25
2022-08-09T21:33:51.408Z,19.31
2022-08-09T21:36:27.796Z,19.35
2022-08-09T21:38:57.831Z,19.37
2022-08-09T21:42:04.826Z,19.40
2022-08-09T21:44:15.233Z,19.42
2022-08-09T21:47:00.174Z,19.43
2022-08-09T21:49:29.268Z,19.38
2022-08-09T21:52:17.627Z,19.35
2022-08-09T21:54:59.613Z,19.32
2022-08-09T21:57:38.734Z,19.33
2022-08-09T22:00:32.567Z,19.36
2022-08-09T22:03:06.465Z,19.33
2022-08-09T22:05:37.036Z,19.29
2022-08-09T22:08:13.574Z,19.24
2022-08-09T22:11:49.352Z,19.17
2022-08-09T22:13:31.591Z,19.05
2022-08-09T22:16:07.676Z,18.93
2022-08-09T22:18:37.458Z,18.86
2022-08-09T22:21:09.785Z,18.84
2022-08-09T22:24:01.335Z,18.82
2022-08-09T22:26:34.972Z,18.79
2022-08-09T22:29:09.108Z,18.75
2022-08-09T22:31:44.569Z,18.70
2022-08-09T22:34:25.817Z,18.66
2022-08-09T22:36:57.492Z,18.63
2022-08-09T22:39:55.838Z,18.59
2022-08-09T22:42:20.646Z,18.56
2022-08-09T22:45:02.490Z,18.54
2022-08-09T22:48:15.223Z,18.51
2022-08-09T22:50:25.546Z,18.50
2022-08-09T22:52:57.985Z,18.50
2022-08-09T22:55:39.774Z,18.49
2022-08-09T22:58:30.697Z,18.49
2022-08-09T23:01:04.203Z,18.50
2022-08-09T23:04:03.356Z,18.52
2022-08-09T23:06:32.702Z,18.55
2022-08-09T23:09:05.570Z,18.58
2022-08-09T23:11:32.309Z,18.59
2022-08-09T23:13:59.044Z,18.62
2022-08-09T23:16:25.681Z,18.65
2022-08-09T23:18:52.371Z,18.68
2022-08-09T23:21:25.273Z,18.71
2022-08-09T23:23:58.796Z,18.73
2022-08-09T23:26:35.273Z,18.74
2022-08-09T23:29:02.695Z,18.75
2022-08-09T23:31:29.358Z,18.78
2022-08-09T23:33:55.912Z,18.81
2022-08-09T23:36:22.502Z,18.83
2022-08-09T23:38:49.571Z,18.85
2022-08-09T23:41:27.516Z,18.85
2022-08-09T23:44:00.646Z,18.84
2022-08-09T23:46:29.363Z,18.81
2022-08-09T23:48:57.382Z,18.74
2022-08-09T23:51:24.515Z,18.72
2022-08-09T23:54:02.337Z,18.66
2022-08-09T23:56:52.691Z,18.57
2022-08-09T23:59:21.321Z,18.51
